Time;durP1;ratioP1;P1;durP2;ratioP2;P2;SDS_P1;SDS_P2;PMS_P1;PMS_P2;Temp;Humidity;BMP_temperature;BMP_pressure;BME280_temperature;BME280_humidity;BME280_pressure;Samples;Min_cycle;Max_cycle;Signal;HPM_P1;HPM_P2
2023/10/23 00:04:32;;;;;;;5.17;2.00;;;;;;;-145.68;100.00;73925.56;10479500;28;20605;-74
2023/10/23 00:09:32;;;;;;;4.80;1.50;;;;;;;-145.68;100.00;73923.56;10482248;28;20505;-74
2023/10/23 00:14:33;;;;;;;5.67;1.60;;;;;;;-145.68;100.00;73923.56;10482561;28;20195;-74
2023/10/23 00:19:33;;;;;;;10.03;1.80;;;;;;;-145.68;100.00;73927.56;10482737;28;20258;-74
2023/10/23 00:24:34;;;;;;;9.13;2.00;;;;;;;-145.68;100.00;73945.56;10481026;28;20654;-74
2023/10/23 00:29:34;;;;;;;7.67;1.77;;;;;;;-145.68;100.00;73931.56;10481060;28;20232;-74
2023/10/23 00:34:34;;;;;;;6.07;2.20;;;;;;;-145.68;100.00;73943.56;10480313;28;20720;-74
2023/10/23 00:39:35;;;;;;;10.47;2.10;;;;;;;-145.68;100.00;73947.56;10479995;28;20219;-74
2023/10/23 00:44:36;;;;;;;6.43;1.97;;;;;;;-145.68;100.00;73943.56;10480133;28;20306;-74
2023/10/23 00:49:37;;;;;;;9.33;1.47;;;;;;;-145.68;100.00;73935.56;10479844;28;20211;-74
2023/10/23 00:54:38;;;;;;;10.43;1.97;;;;;;;-145.68;100.00;73927.56;10462054;28;20191;-73
2023/10/23 00:59:39;;;;;;;9.87;1.90;;;;;;;-145.68;100.00;73927.56;10478065;28;20596;-74
2023/10/23 01:04:39;;;;;;;7.83;1.93;;;;;;;-145.68;100.00;73927.56;10479367;28;20199;-74
2023/10/23 01:09:39;;;;;;;9.73;2.03;;;;;;;-145.68;100.00;73915.56;10462174;28;20202;-73
2023/10/23 01:14:40;;;;;;;9.67;2.70;;;;;;;-145.68;100.00;73909.56;10478234;28;20195;-74
2023/10/23 01:19:41;;;;;;;5.33;1.90;;;;;;;-145.68;100.00;73911.56;10479862;28;20227;-74
2023/10/23 01:24:44;;;;;;;10.70;1.87;;;;;;;-145.68;100.00;73915.56;10480988;28;20226;-74
2023/10/23 01:29:45;;;;;;;7.97;2.07;;;;;;;-145.68;100.00;73931.56;10487567;28;20187;-73
2023/10/23 01:34:46;;;;;;;8.17;2.17;;;;;;;-145.68;100.00;73941.56;10478758;28;20644;-74
2023/10/23 01:39:46;;;;;;;8.67;1.67;;;;;;;-145.68;100.00;73951.53;10478918;28;20228;-73
2023/10/23 01:44:46;;;;;;;5.47;1.77;;;;;;;-145.68;100.00;73975.53;10478798;28;20202;-74
2023/10/23 01:49:47;;;;;;;7.50;1.73;;;;;;;-145.68;100.00;73985.53;10474088;28;20256;-74
2023/10/23 01:54:50;;;;;;;10.97;1.83;;;;;;;-145.68;100.00;74009.53;10478003;28;20635;-74
2023/10/23 01:59:50;;;;;;;10.63;1.77;;;;;;;-145.68;100.00;74027.50;10467902;28;20255;-74
2023/10/23 02:04:50;;;;;;;11.43;2.33;;;;;;;-145.68;100.00;74065.50;10475680;28;20197;-74
2023/10/23 02:09:51;;;;;;;8.80;2.53;;;;;;;-145.68;100.00;74077.50;10476967;28;20195;-74
2023/10/23 02:14:52;;;;;;;11.60;1.60;;;;;;;-145.68;100.00;74111.47;10475657;28;20607;-74
2023/10/23 02:19:53;;;;;;;7.03;1.63;;;;;;;-145.68;100.00;74079.50;10477548;28;20337;-74
2023/10/23 02:24:53;;;;;;;8.97;1.87;;;;;;;-145.68;100.00;74093.47;10474987;28;20262;-74
2023/10/23 02:29:54;;;;;;;10.63;2.07;;;;;;;-145.68;100.00;74089.47;10476621;28;20199;-74
2023/10/23 02:34:55;;;;;;;7.23;2.07;;;;;;;-145.68;100.00;74099.47;10476791;28;20710;-74
2023/10/23 02:39:56;;;;;;;13.33;1.90;;;;;;;-145.68;100.00;74099.47;10476010;28;20223;-74
2023/10/23 02:44:57;;;;;;;12.37;1.80;;;;;;;-145.68;100.00;74109.47;10475732;28;20199;-74
2023/10/23 02:49:57;;;;;;;11.63;2.07;;;;;;;-145.68;100.00;74115.47;10475440;28;20613;-74
2023/10/23 02:54:58;;;;;;;6.67;1.70;;;;;;;-145.68;100.00;74133.47;10476760;28;20200;-74
2023/10/23 02:59:58;;;;;;;13.80;2.17;;;;;;;-145.68;100.00;74151.47;10475643;28;20222;-73
2023/10/23 03:04:59;;;;;;;18.50;3.70;;;;;;;-145.68;100.00;74159.44;10475311;28;20215;-74
2023/10/23 03:09:59;;;;;;;12.17;2.07;;;;;;;-145.68;100.00;74187.44;10475278;28;20694;-74
2023/10/23 03:15:01;;;;;;;8.03;1.90;;;;;;;-145.68;100.00;74201.44;10476668;28;20234;-75
2023/10/23 03:20:03;;;;;;;9.53;1.90;;;;;;;-145.68;100.00;74209.44;10476553;28;20219;-74
2023/10/23 03:25:08;;;;;;;8.77;2.30;;;;;;;-145.68;100.00;74235.41;10475351;28;20236;-74
2023/10/23 03:30:09;;;;;;;9.20;1.67;;;;;;;-145.68;100.00;74239.41;10474861;28;20305;-74
2023/10/23 03:35:09;;;;;;;9.30;1.60;;;;;;;-145.68;100.00;74243.41;10475243;28;20252;-74
2023/10/23 03:40:10;;;;;;;8.87;2.23;;;;;;;-145.68;100.00;74255.41;10483312;28;20245;-74
2023/10/23 03:45:11;;;;;;;8.00;1.43;;;;;;;-145.68;100.00;74233.41;10482596;28;20196;-74
2023/10/23 03:50:11;;;;;;;7.33;1.40;;;;;;;-145.68;100.00;74217.44;10481680;28;20199;-74
2023/10/23 03:55:12;;;;;;;9.17;2.10;;;;;;;-145.68;100.00;74229.41;10468917;28;20183;-74
2023/10/23 04:00:13;;;;;;;10.50;2.23;;;;;;;-145.68;100.00;74203.44;10464742;28;20572;-75
2023/10/23 04:05:13;;;;;;;12.70;2.03;;;;;;;-145.68;100.00;74189.44;10465391;28;20198;-74
2023/10/23 04:10:14;;;;;;;9.37;1.80;;;;;;;-145.68;100.00;74159.44;10460326;28;20190;-74
2023/10/23 04:15:14;;;;;;;10.97;2.20;;;;;;;-145.68;100.00;74147.47;10460996;28;20216;-74
2023/10/23 04:20:14;;;;;;;12.93;2.20;;;;;;;-145.68;100.00;74143.47;10466257;28;20651;-75
2023/10/23 04:25:15;;;;;;;9.60;1.77;;;;;;;-145.68;100.00;74147.47;10476137;28;20242;-74
2023/10/23 04:30:16;;;;;;;9.50;1.90;;;;;;;-145.68;100.00;74155.44;10475837;28;20202;-74
2023/10/23 04:35:16;;;;;;;6.43;1.93;;;;;;;-145.68;100.00;74167.44;10474432;28;20256;-74
2023/10/23 04:40:17;;;;;;;10.03;1.90;;;;;;;-145.68;100.00;74175.44;10476154;28;20670;-74
2023/10/23 04:45:17;;;;;;;6.47;2.13;;;;;;;-145.68;100.00;74169.44;10474933;28;20558;-74
2023/10/23 04:50:17;;;;;;;9.00;2.20;;;;;;;-145.68;100.00;74179.44;10474340;28;20622;-74
2023/10/23 04:55:18;;;;;;;6.87;1.90;;;;;;;-145.68;100.00;74195.44;10474989;28;20214;-74
2023/10/23 05:00:21;;;;;;;9.83;2.13;;;;;;;-145.68;100.00;74223.44;10471626;28;20268;-74
2023/10/23 05:05:22;;;;;;;3.97;1.70;;;;;;;-145.68;100.00;74243.41;10474174;28;20199;-74
2023/10/23 05:10:22;;;;;;;8.60;2.07;;;;;;;-145.68;100.00;74259.41;10474569;28;20191;-74
2023/10/23 05:15:23;;;;;;;8.93;1.93;;;;;;;-145.68;100.00;74273.41;10472799;28;20203;-74
2023/10/23 05:20:24;;;;;;;11.80;2.13;;;;;;;-145.68;100.00;74267.41;10474029;28;20677;-73
2023/10/23 05:25:24;;;;;;;11.53;1.90;;;;;;;-145.68;100.00;74281.41;10473599;28;20187;-74
2023/10/23 05:30:26;;;;;;;14.10;2.07;;;;;;;-145.68;100.00;74271.41;10473337;28;20202;-74
2023/10/23 05:35:26;;;;;;;11.83;2.00;;;;;;;-145.68;100.00;74269.41;10473018;28;20196;-74
2023/10/23 05:40:27;;;;;;;6.83;2.07;;;;;;;-145.68;100.00;74249.41;10471248;28;20717;-74
2023/10/23 05:45:27;;;;;;;4.47;1.47;;;;;;;-145.68;100.00;74239.41;10472677;28;20191;-74
2023/10/23 05:50:27;;;;;;;8.63;2.90;;;;;;;-145.68;100.00;74237.41;10457159;28;20261;-74
2023/10/23 05:55:28;;;;;;;9.40;2.47;;;;;;;-145.68;100.00;74249.41;10455796;28;20178;-74
2023/10/23 06:00:28;;;;;;;9.90;2.10;;;;;;;-145.68;100.00;74257.41;10459511;28;20238;-74
2023/10/23 06:05:29;;;;;;;8.73;1.90;;;;;;;-145.68;100.00;74267.41;10458952;28;20232;-74
2023/10/23 06:10:29;;;;;;;8.60;1.90;;;;;;;-145.68;100.00;74277.41;10451613;28;20203;-75
2023/10/23 06:15:31;;;;;;;6.67;1.90;;;;;;;-145.68;100.00;74297.41;10453626;28;20188;-74
2023/10/23 06:20:32;;;;;;;11.77;2.30;;;;;;;-145.68;100.00;74313.38;10453007;28;20638;-74
2023/10/23 06:25:32;;;;;;;7.33;2.30;;;;;;;-145.68;100.00;74325.38;10452688;28;20207;-74
2023/10/23 06:30:34;;;;;;;9.93;3.83;;;;;;;-145.68;100.00;74333.38;10457461;28;20272;-74
2023/10/23 06:35:35;;;;;;;9.83;2.90;;;;;;;-145.68;100.00;74327.38;10471489;28;20203;-74
2023/10/23 06:40:35;;;;;;;7.33;2.00;;;;;;;-145.68;100.00;74333.38;10470880;28;20991;-75
2023/10/23 06:45:37;;;;;;;9.30;2.20;;;;;;;-145.68;100.00;74331.38;10467672;28;20203;-74
2023/10/23 06:50:45;;;;;;;5.53;2.20;;;;;;;-145.68;100.00;74317.38;10465021;28;20207;-74
2023/10/23 06:55:47;;;;;;;6.10;2.23;;;;;;;-145.68;100.00;74297.41;10469093;28;20195;-74
2023/10/23 07:00:48;;;;;;;8.60;2.60;;;;;;;-145.68;100.00;74259.41;10467401;28;20722;-74
2023/10/23 07:05:48;;;;;;;9.97;2.50;;;;;;;-145.68;100.00;74185.44;10457861;28;20206;-74
2023/10/23 07:10:48;;;;;;;6.27;1.83;;;;;;;-145.68;100.00;74095.47;10470058;28;20202;-74
2023/10/23 07:15:50;;;;;;;8.17;1.90;;;;;;;-145.68;100.00;74015.50;10479002;28;20290;-74
2023/10/23 07:20:59;;;;;;;10.90;2.30;;;;;;;-145.68;100.00;73983.53;10478676;28;20635;-75
2023/10/23 07:26:08;;;;;;;4.88;2.15;;;;;;;-145.68;100.00;73901.56;10470497;28;20192;-74
2023/10/23 07:31:10;;;;;;;5.60;2.10;;;;;;;-145.68;100.00;73851.59;10478402;28;20199;-75
2023/10/23 07:36:12;;;;;;;7.07;2.05;;;;;;;-145.68;94.54;73859.59;10476834;28;20289;-74
2023/10/23 07:41:13;;;;;;;4.30;1.85;;;;;;;-145.68;93.02;73817.63;10477906;28;20219;-74
2023/10/23 07:46:13;;;;;;;4.15;1.50;;;;;;;-145.68;90.38;73811.63;10477611;28;20648;-74
2023/10/23 07:51:14;;;;;;;10.02;1.75;;;;;;;-145.68;90.74;73867.59;10472939;28;20215;-75
2023/10/23 07:56:14;;;;;;;5.30;1.90;;;;;;;-145.68;87.67;73739.66;10455555;28;20215;-75
2023/10/23 08:01:15;;;;;;;5.07;1.83;;;;;;;-145.68;83.41;73669.69;10472125;28;20212;-76
2023/10/23 08:06:15;;;;;;;4.68;1.67;;;;;;;-145.68;80.37;73681.69;10473915;28;20221;-76
2023/10/23 08:11:16;;;;;;;3.40;1.52;;;;;;;-145.68;76.15;73485.81;10474283;28;20674;-76
2023/10/23 08:16:17;;;;;;;7.13;1.35;;;;;;;-145.68;66.02;73299.91;10474138;28;21012;-75
2023/10/23 08:21:17;;;;;;;4.55;1.85;;;;;;;-145.68;60.62;73271.94;10459807;28;20235;-75
2023/10/23 08:26:17;;;;;;;5.15;1.48;;;;;;;-145.68;59.82;73243.97;10457657;28;20226;-75
2023/10/23 08:31:18;;;;;;;3.63;1.42;;;;;;;-145.68;59.60;73363.88;10455657;28;20179;-74
2023/10/23 08:36:18;;;;;;;3.65;1.00;;;;;;;-145.68;60.40;73299.91;10455758;28;20300;-74
2023/10/23 08:41:19;;;;;;;5.20;1.40;;;;;;;-145.68;66.08;73437.84;10474696;28;20223;-73
2023/10/23 08:46:19;;;;;;;5.45;1.67;;;;;;;-145.68;64.18;73367.88;10478364;28;20206;-75
2023/10/23 08:51:20;;;;;;;2.92;1.20;;;;;;;-145.68;59.61;73251.94;10450634;28;20303;-75
2023/10/23 08:56:21;;;;;;;4.82;1.10;;;;;;;-145.68;61.85;73389.88;10471043;28;20219;-74
2023/10/23 09:01:22;;;;;;;3.13;1.20;;;;;;;-145.68;60.63;73221.97;10471298;28;20690;-74
2023/10/23 09:06:22;;;;;;;3.33;0.90;;;;;;;-145.68;59.67;73263.94;10470126;28;20183;-75
2023/10/23 09:11:45;;;;;;;1.65;0.90;;;;;;;-145.68;55.49;73044.09;10474631;28;20240;-75
2023/10/23 09:16:45;;;;;;;2.70;0.90;;;;;;;-145.68;55.58;73124.03;10470658;28;20199;-74
2023/10/23 09:21:46;;;;;;;4.07;1.10;;;;;;;-145.68;52.97;72970.16;10472198;28;20699;-73
2023/10/23 09:26:47;;;;;;;5.30;1.02;;;;;;;-145.68;51.46;72964.16;10469357;28;20234;-75
2023/10/23 09:31:48;;;;;;;3.25;0.77;;;;;;;-145.68;53.26;73066.09;10470594;28;20191;-74
2023/10/23 09:36:50;;;;;;;1.95;0.90;;;;;;;-145.68;48.50;72750.31;10466718;28;20663;-75
2023/10/23 09:41:51;;;;;;;3.90;1.00;;;;;;;-145.68;48.23;72780.28;10464644;28;20671;-75
2023/10/23 09:46:52;;;;;;;3.50;1.08;;;;;;;-145.68;51.06;72938.16;10469075;28;20278;-75
2023/10/23 09:51:52;;;;;;;5.28;0.90;;;;;;;-145.68;47.77;72776.28;10470785;28;20618;-75
2023/10/23 09:56:53;;;;;;;3.20;1.17;;;;;;;-145.68;51.72;73068.06;10465883;28;20329;-74
2023/10/23 10:01:57;;;;;;;4.25;0.90;;;;;;;-145.68;50.67;72946.16;10469888;28;20195;-75
2023/10/23 10:07:08;;;;;;;2.90;0.80;;;;;;;-145.68;48.55;72968.16;10464235;28;20219;-74
2023/10/23 10:12:09;;;;;;;1.88;0.70;;;;;;;-145.68;47.48;72700.34;10468787;28;20278;-75
2023/10/23 10:17:10;;;;;;;1.33;0.80;;;;;;;-145.68;45.96;72696.34;10468824;28;20188;-75
2023/10/23 10:22:10;;;;;;;3.42;0.73;;;;;;;-145.68;46.32;72732.34;10470002;28;20242;-75
2023/10/23 10:27:11;;;;;;;2.92;0.88;;;;;;;-145.68;44.49;72536.50;10469363;28;20200;-75
2023/10/23 10:32:11;;;;;;;2.35;0.80;;;;;;;-145.68;41.40;72390.63;10481719;28;20641;-75
2023/10/23 10:37:13;;;;;;;1.45;0.57;;;;;;;-145.68;44.66;72680.38;10462088;28;21002;-75
2023/10/23 10:42:17;;;;;;;1.73;0.60;;;;;;;-145.68;44.61;72954.16;10463945;28;20192;-75
2023/10/23 10:47:18;;;;;;;0.60;0.50;;;;;;;-145.68;45.87;72806.28;10471189;28;20252;-76
2023/10/23 10:52:27;;;;;;;1.95;0.60;;;;;;;-145.68;43.62;72770.31;10472528;28;20667;-75
2023/10/23 10:57:27;;;;;;;3.20;0.90;;;;;;;-145.68;43.37;72584.44;10471923;28;20573;-75
2023/10/23 11:02:28;;;;;;;2.05;0.98;;;;;;;-145.68;40.07;72392.63;10466451;28;20184;-75
2023/10/23 11:07:28;;;;;;;2.40;1.02;;;;;;;-145.68;45.00;72778.28;10453472;28;20194;-75
2023/10/23 11:12:29;;;;;;;4.05;0.88;;;;;;;-145.68;42.20;72608.44;10459824;28;20199;-75
2023/10/23 11:17:29;;;;;;;2.60;1.02;;;;;;;-145.68;41.47;72628.41;10460401;28;20710;-75
2023/10/23 11:22:30;;;;;;;0.95;0.60;;;;;;;-145.68;41.13;72394.63;10468547;28;20333;-75
2023/10/23 11:27:30;;;;;;;2.47;0.77;;;;;;;-145.68;38.14;72210.78;10469990;28;20198;-75
2023/10/23 11:32:31;;;;;;;2.17;0.70;;;;;;;-145.68;37.06;72092.91;10470576;28;20184;-75
2023/10/23 11:37:38;;;;;;;1.75;0.60;;;;;;;-145.68;38.34;72192.78;10476469;28;20215;-75
2023/10/23 11:42:46;;;;;;;1.08;0.60;;;;;;;-145.68;39.56;72228.75;10465376;28;20175;-76
2023/10/23 11:47:49;;;;;;;1.38;0.68;;;;;;;-145.68;39.05;72196.78;10470184;28;20208;-75
2023/10/23 11:52:49;;;;;;;1.83;0.75;;;;;;;-145.68;37.27;72062.91;10470694;28;20245;-75
2023/10/23 11:57:50;;;;;;;0.88;0.65;;;;;;;-145.68;38.51;72044.94;10475429;28;20257;-75
2023/10/23 12:02:51;;;;;;;0.98;0.70;;;;;;;-145.68;37.80;72064.91;10480570;28;20192;-74
2023/10/23 12:07:53;;;;;;;1.90;0.70;;;;;;;-145.68;38.58;72142.84;10477630;28;20203;-75
2023/10/23 12:12:54;;;;;;;2.10;0.70;;;;;;;-145.68;38.27;72108.88;10479760;28;20667;-76
2023/10/23 12:18:03;;;;;;;4.53;0.70;;;;;;;-145.68;37.17;72032.94;10473710;28;20875;-75
2023/10/23 12:23:03;;;;;;;2.85;0.80;;;;;;;-145.68;37.48;72134.84;10462450;28;20220;-75
2023/10/23 12:28:03;;;;;;;2.33;0.75;;;;;;;-145.68;39.43;72320.69;10477677;28;20196;-75
2023/10/23 12:33:05;;;;;;;4.28;0.70;;;;;;;-145.68;40.86;72370.63;10475860;28;20187;-75
2023/10/23 12:38:05;;;;;;;3.42;1.02;;;;;;;-145.68;42.58;72512.50;10475707;28;20680;-75
2023/10/23 12:43:06;;;;;;;1.30;0.70;;;;;;;-145.68;44.19;72696.34;10474386;28;20188;-75
2023/10/23 12:48:06;;;;;;;4.53;0.80;;;;;;;-145.68;47.52;72826.25;10471849;28;20276;-74
2023/10/23 12:53:10;;;;;;;3.75;1.00;;;;;;;-145.68;48.42;72882.22;10475646;28;20191;-74
2023/10/23 12:58:11;;;;;;;4.55;0.82;;;;;;;-145.68;49.63;72948.16;10457812;28;20963;-74
2023/10/23 13:03:11;;;;;;;2.42;1.00;;;;;;;-145.68;50.47;72966.16;10473846;28;20208;-74
2023/10/23 13:08:12;;;;;;;3.63;1.00;;;;;;;-145.68;50.71;72894.22;10474844;28;20345;-74
2023/10/23 13:13:12;;;;;;;1.90;0.93;;;;;;;-145.68;52.49;72976.16;10441130;28;20195;-74
2023/10/23 13:18:13;;;;;;;3.13;1.00;;;;;;;-145.68;52.56;73002.13;10475138;28;20706;-74
2023/10/23 13:23:14;;;;;;;3.38;1.05;;;;;;;-145.68;52.94;72990.13;10457450;28;20223;-74
2023/10/23 13:28:14;;;;;;;2.97;0.98;;;;;;;-145.68;54.18;73060.09;10471507;28;20184;-74
2023/10/23 13:33:15;;;;;;;2.60;1.45;;;;;;;-145.68;54.23;73046.09;10464575;28;20802;-74
2023/10/23 13:38:15;;;;;;;1.52;0.90;;;;;;;-145.68;54.21;73046.09;10464219;28;20216;-75
2023/10/23 13:43:15;;;;;;;2.67;1.00;;;;;;;-145.68;55.65;73072.06;10464537;28;21009;-74
2023/10/23 13:48:17;;;;;;;1.95;0.93;;;;;;;-145.68;56.44;73066.09;10471426;28;20223;-74
2023/10/23 13:53:18;;;;;;;2.95;1.00;;;;;;;-145.68;56.66;73068.06;10460702;28;20671;-74
2023/10/23 13:58:19;;;;;;;2.35;1.52;;;;;;;-145.68;55.82;73044.09;10469965;28;20210;-74
2023/10/23 14:03:19;;;;;;;4.25;1.63;;;;;;;-145.68;56.65;73044.09;10470893;28;20203;-74
2023/10/23 14:08:19;;;;;;;4.53;1.50;;;;;;;-145.68;57.05;73028.09;10468422;28;20256;-74
2023/10/23 14:13:20;;;;;;;2.33;1.30;;;;;;;-145.68;57.52;73056.09;10457938;28;20522;-74
2023/10/23 14:18:20;;;;;;;3.42;1.30;;;;;;;-145.68;57.76;73104.06;10470057;28;20566;-73
2023/10/23 14:23:21;;;;;;;6.85;1.70;;;;;;;-145.68;57.78;73074.06;10459467;28;20655;-74
2023/10/23 14:28:21;;;;;;;1.88;1.38;;;;;;;-145.68;56.90;73026.09;10452419;28;20187;-74
2023/10/23 14:33:21;;;;;;;3.33;1.40;;;;;;;-145.68;57.34;73058.09;10454532;28;20191;-74
2023/10/23 14:38:23;;;;;;;2.58;1.27;;;;;;;-145.68;57.24;73056.09;10453519;28;20219;-73
2023/10/23 14:43:24;;;;;;;4.20;1.42;;;;;;;-145.68;56.32;73096.06;10451129;28;20295;-74
2023/10/23 14:48:24;;;;;;;5.55;1.50;;;;;;;-145.68;55.84;73168.00;10450396;28;20360;-74
2023/10/23 14:53:26;;;;;;;5.03;1.70;;;;;;;-145.68;55.79;73203.97;10450443;28;20194;-74
2023/10/23 14:58:26;;;;;;;8.23;2.60;;;;;;;-145.68;56.67;73243.97;10460122;28;20218;-74
2023/10/23 15:03:27;;;;;;;5.80;2.05;;;;;;;-145.68;53.72;73180.00;10479140;28;20530;-74
2023/10/23 15:08:27;;;;;;;12.32;4.93;;;;;;;-145.68;57.60;73279.94;10463664;28;20179;-73
2023/10/23 15:13:28;;;;;;;3.15;1.60;;;;;;;-145.68;62.76;73421.84;10466565;28;20207;-74
2023/10/23 15:18:30;;;;;;;15.32;6.15;;;;;;;-145.68;65.39;73383.88;10471489;28;20749;-74
2023/10/23 15:23:31;;;;;;;10.50;4.05;;;;;;;-145.68;68.75;73423.84;10466360;28;20227;-74
2023/10/23 15:28:34;;;;;;;17.45;7.13;;;;;;;-145.68;71.81;73489.81;10460415;28;20184;-73
2023/10/23 15:33:35;;;;;;;35.03;11.55;;;;;;;-145.68;72.83;73523.78;10462851;28;20703;-74
2023/10/23 15:38:38;;;;;;;38.97;26.65;;;;;;;-145.68;77.35;73603.72;10454798;28;20216;-74
2023/10/23 15:43:39;;;;;;;8.75;4.60;;;;;;;-145.68;82.57;73711.66;10455656;28;20564;-73
2023/10/23 15:48:40;;;;;;;9.57;4.93;;;;;;;-145.68;85.53;73695.69;10457595;28;20208;-74
2023/10/23 15:53:41;;;;;;;6.85;4.05;;;;;;;-145.68;86.99;73695.69;10463583;28;20207;-73
2023/10/23 15:58:41;;;;;;;9.52;3.70;;;;;;;-145.68;92.03;73781.63;10470700;28;20258;-73
2023/10/23 16:03:41;;;;;;;7.57;3.67;;;;;;;-145.68;98.52;73787.63;10477295;28;20207;-74
2023/10/23 16:08:42;;;;;;;14.93;3.70;;;;;;;-145.68;100.00;73791.63;10476952;28;20193;-74
2023/10/23 16:13:42;;;;;;;12.25;5.55;;;;;;;-145.68;100.00;73785.63;10477200;28;20198;-75
2023/10/23 16:18:44;;;;;;;9.10;4.40;;;;;;;-145.68;100.00;73801.63;10476361;28;20223;-75
2023/10/23 16:23:44;;;;;;;12.60;3.90;;;;;;;-145.68;100.00;73827.59;10476698;28;20288;-75
2023/10/23 16:28:44;;;;;;;12.20;4.60;;;;;;;-145.68;100.00;73825.63;10474685;28;20183;-75
2023/10/23 16:33:46;;;;;;;7.20;4.47;;;;;;;-145.68;100.00;73823.63;10478225;28;20609;-75
2023/10/23 16:38:46;;;;;;;9.60;4.93;;;;;;;-145.68;100.00;73833.59;10475576;28;20678;-75
2023/10/23 16:43:46;;;;;;;12.20;5.47;;;;;;;-145.68;100.00;73851.59;10475340;28;20199;-75
2023/10/23 16:48:47;;;;;;;8.80;4.50;;;;;;;-145.68;100.00;73869.59;10471506;28;20211;-75
2023/10/23 16:53:48;;;;;;;7.30;3.63;;;;;;;-145.68;100.00;73861.59;10459008;28;20494;-75
2023/10/23 16:58:48;;;;;;;17.20;7.47;;;;;;;-145.68;100.00;73867.59;10455925;28;20272;-75
2023/10/23 17:03:49;;;;;;;10.47;5.87;;;;;;;-145.68;100.00;73891.56;10471889;28;20257;-75
2023/10/23 17:08:49;;;;;;;10.13;3.70;;;;;;;-145.68;100.00;73901.56;10473470;28;20187;-75
2023/10/23 17:13:49;;;;;;;11.30;4.47;;;;;;;-145.68;100.00;73909.56;10472294;28;20187;-75
2023/10/23 17:18:50;;;;;;;9.03;4.90;;;;;;;-145.68;100.00;73923.56;10472711;28;20218;-75
2023/10/23 17:23:50;;;;;;;12.70;6.50;;;;;;;-145.68;100.00;73927.56;10469729;28;20250;-75
2023/10/23 17:28:51;;;;;;;7.77;2.80;;;;;;;-145.68;100.00;73937.56;10472842;28;20654;-75
2023/10/23 17:33:51;;;;;;;9.60;3.57;;;;;;;-145.68;100.00;73939.56;10465674;28;20191;-75
2023/10/23 17:38:53;;;;;;;16.83;4.97;;;;;;;-145.68;100.00;73947.56;10473857;28;20225;-75
2023/10/23 17:43:54;;;;;;;9.80;4.37;;;;;;;-145.68;100.00;73955.53;10472858;28;20312;-74
2023/10/23 17:48:54;;;;;;;6.57;3.47;;;;;;;-145.68;100.00;73955.53;10470026;28;20233;-75
2023/10/23 17:53:55;;;;;;;8.63;3.33;;;;;;;-145.68;100.00;73955.53;10464607;28;20686;-75
2023/10/23 17:58:55;;;;;;;9.47;3.23;;;;;;;-145.68;100.00;73943.56;10471294;28;20879;-74
2023/10/23 18:03:56;;;;;;;9.37;3.63;;;;;;;-145.68;100.00;73937.56;10471166;28;20199;-75
2023/10/23 18:08:56;;;;;;;6.70;3.40;;;;;;;-145.68;100.00;73941.56;10462784;28;20186;-74
2023/10/23 18:13:56;;;;;;;10.10;3.73;;;;;;;-145.68;100.00;73927.56;10461240;28;20207;-75
2023/10/23 18:18:57;;;;;;;7.60;3.87;;;;;;;-145.68;100.00;73937.56;10455384;28;20219;-75
2023/10/23 18:23:57;;;;;;;7.43;3.83;;;;;;;-145.68;100.00;73927.56;10471067;28;20317;-74
2023/10/23 18:28:58;;;;;;;9.53;3.77;;;;;;;-145.68;100.00;73939.56;10458730;28;20187;-73
2023/10/23 18:33:58;;;;;;;11.73;4.33;;;;;;;-145.68;100.00;73959.53;10467715;28;20238;-74
2023/10/23 18:39:01;;;;;;;9.77;4.10;;;;;;;-145.68;100.00;73947.56;10470491;28;20219;-75
2023/10/23 18:44:01;;;;;;;9.70;5.73;;;;;;;-145.68;100.00;73963.53;10469939;28;20203;-75
2023/10/23 18:49:01;;;;;;;19.23;9.73;;;;;;;-145.68;100.00;73947.56;10470188;28;20200;-74
2023/10/23 18:54:02;;;;;;;13.63;3.57;;;;;;;-145.68;100.00;73953.53;10470509;28;20211;-74
2023/10/23 18:59:02;;;;;;;9.60;3.20;;;;;;;-145.68;100.00;73975.53;10469945;28;20672;-74
2023/10/23 19:04:03;;;;;;;15.00;4.17;;;;;;;-145.68;100.00;73971.53;10469259;28;20550;-74
2023/10/23 19:09:04;;;;;;;6.60;2.70;;;;;;;-145.68;100.00;73897.56;10476439;28;20798;-74
2023/10/23 19:14:04;;;;;;;12.30;3.00;;;;;;;-145.68;100.00;73877.59;10479299;28;20223;-74
2023/10/23 19:19:06;;;;;;;6.07;2.90;;;;;;;-145.68;100.00;73869.59;10478652;28;20244;-74
2023/10/23 19:24:12;;;;;;;10.60;3.30;;;;;;;-145.68;100.00;73865.59;10477809;28;20242;-74
2023/10/23 19:29:13;;;;;;;7.50;2.90;;;;;;;-145.68;100.00;73901.56;10478309;28;20196;-74
2023/10/23 19:34:13;;;;;;;11.53;4.07;;;;;;;-145.68;100.00;73935.56;10477997;28;20199;-75
2023/10/23 19:39:14;;;;;;;10.33;4.53;;;;;;;-145.68;100.00;73945.56;10478489;28;20216;-75
2023/10/23 19:44:15;;;;;;;12.73;3.90;;;;;;;-145.68;100.00;73933.56;10478505;28;20199;-74
2023/10/23 19:49:16;;;;;;;9.70;3.40;;;;;;;-145.68;100.00;73939.56;10492465;28;20662;-74
2023/10/23 19:54:16;;;;;;;10.03;3.50;;;;;;;-145.68;100.00;73929.56;10477183;28;20198;-74
2023/10/23 19:59:17;;;;;;;11.17;4.20;;;;;;;-145.68;100.00;73939.56;10475975;28;20310;-74
2023/10/23 20:04:17;;;;;;;10.97;3.93;;;;;;;-145.68;100.00;73941.56;10477030;28;20199;-75
2023/10/23 20:09:17;;;;;;;7.90;4.40;;;;;;;-145.68;100.00;73913.56;10477165;28;20199;-74
2023/10/23 20:14:18;;;;;;;10.33;4.43;;;;;;;-145.68;100.00;73927.56;10476779;28;20196;-75
2023/10/23 20:19:18;;;;;;;10.33;3.97;;;;;;;-145.68;100.00;73887.56;10468589;28;20264;-75
2023/10/23 20:24:52;;;;;;;11.17;5.17;;;;;;;-145.68;100.00;73879.59;10476413;28;20223;-75
2023/10/23 20:29:52;;;;;;;9.20;4.50;;;;;;;-145.68;100.00;73855.59;10475735;28;20196;-74
2023/10/23 20:34:52;;;;;;;10.90;4.50;;;;;;;-145.68;100.00;73889.56;10474373;28;20199;-74
2023/10/23 20:39:53;;;;;;;13.47;5.13;;;;;;;-145.68;100.00;73867.59;10474604;28;20215;-74
2023/10/23 20:44:53;;;;;;;11.00;4.87;;;;;;;-145.68;100.00;73859.59;10475456;28;20257;-75
2023/10/23 20:49:54;;;;;;;8.93;4.13;;;;;;;-145.68;100.00;73867.59;10475722;28;20269;-74
2023/10/23 20:54:55;;;;;;;10.30;4.13;;;;;;;-145.68;100.00;73851.59;10474565;28;20191;-75
2023/10/23 20:59:55;;;;;;;9.87;3.77;;;;;;;-145.68;100.00;73815.63;10475344;28;20580;-74
2023/10/23 21:04:55;;;;;;;7.50;3.63;;;;;;;-145.68;100.00;73807.63;10474016;28;20200;-74
2023/10/23 21:09:56;;;;;;;17.37;6.77;;;;;;;-145.68;100.00;73777.63;10475245;28;20548;-74
2023/10/23 21:14:56;;;;;;;10.13;5.00;;;;;;;-145.68;100.00;73765.66;10474652;28;20199;-74
2023/10/23 21:19:57;;;;;;;10.77;3.20;;;;;;;-145.68;100.00;73729.66;10474723;28;20220;-75
2023/10/23 21:24:57;;;;;;;7.97;2.80;;;;;;;-145.68;100.00;73687.69;10468181;28;20243;-74
2023/10/23 21:29:57;;;;;;;8.67;2.87;;;;;;;-145.68;100.00;73691.69;10471900;28;20270;-74
2023/10/23 21:34:58;;;;;;;6.03;2.33;;;;;;;-145.68;100.00;73677.69;10464533;28;20656;-75
2023/10/23 21:39:58;;;;;;;7.63;2.63;;;;;;;-145.68;100.00;73651.72;10468243;28;20207;-74
2023/10/23 21:44:59;;;;;;;5.78;2.70;;;;;;;-145.68;100.00;73615.72;10456687;28;20200;-74
2023/10/23 21:49:59;;;;;;;5.65;2.53;;;;;;;-145.68;100.00;73627.72;10471369;28;20771;-75
2023/10/23 21:55:00;;;;;;;9.53;2.97;;;;;;;-145.68;100.00;73651.72;10471715;28;20192;-74
2023/10/23 22:00:01;;;;;;;11.13;3.30;;;;;;;-145.68;100.00;73645.72;10470998;28;20218;-74
2023/10/23 22:05:02;;;;;;;8.70;2.92;;;;;;;-145.68;100.00;73653.69;10471539;28;20719;-75
2023/10/23 22:10:02;;;;;;;12.10;3.70;;;;;;;-145.68;100.00;73609.72;10470518;28;20210;-75
2023/10/23 22:15:03;;;;;;;13.30;2.20;;;;;;;-145.68;100.00;73579.75;10470984;28;20192;-74
2023/10/23 22:20:04;;;;;;;6.50;2.30;;;;;;;-145.68;100.00;73547.75;10471090;28;20644;-75
2023/10/23 22:25:06;;;;;;;9.10;2.50;;;;;;;-145.68;100.00;73513.78;9946451;28;15040502;-74
2023/10/23 22:30:06;;;;;;;8.75;2.03;;;;;;;-145.68;100.00;73501.78;10472435;28;20214;-74
2023/10/23 22:35:09;;;;;;;10.20;2.77;;;;;;;-145.68;100.00;73517.78;10471183;28;20279;-74